sensor_id;sensor_type;location;lat;lon;timestamp;temperature;humidity
15143;DHT22;7672;50.834;6.286;2022-09-30T00:01:34;10.60;99.90
15143;DHT22;7672;50.834;6.286;2022-09-30T00:04:02;10.60;99.90
15143;DHT22;7672;50.834;6.286;2022-09-30T00:06:31;10.60;99.90
15143;DHT22;7672;50.834;6.286;2022-09-30T00:08:58;10.60;99.90
15143;DHT22;7672;50.834;6.286;2022-09-30T00:11:28;10.60;99.90
15143;DHT22;7672;50.834;6.286;2022-09-30T00:13:57;10.60;99.90
15143;DHT22;7672;50.834;6.286;2022-09-30T00:16:27;10.60;99.90
15143;DHT22;7672;50.834;6.286;2022-09-30T00:18:57;10.60;99.90
15143;DHT22;7672;50.834;6.286;2022-09-30T00:21:24;10.60;99.90
15143;DHT22;7672;50.834;6.286;2022-09-30T00:23:53;10.60;99.90
15143;DHT22;7672;50.834;6.286;2022-09-30T00:26:22;10.60;99.90
15143;DHT22;7672;50.834;6.286;2022-09-30T00:28:55;10.60;99.90
15143;DHT22;7672;50.834;6.286;2022-09-30T00:31:27;10.60;99.90
15143;DHT22;7672;50.834;6.286;2022-09-30T00:33:56;10.60;99.90
15143;DHT22;7672;50.834;6.286;2022-09-30T00:36:53;10.50;99.90
15143;DHT22;7672;50.834;6.286;2022-09-30T00:39:26;10.50;99.90
15143;DHT22;7672;50.834;6.286;2022-09-30T00:41:59;10.50;99.90
15143;DHT22;7672;50.834;6.286;2022-09-30T00:44:50;10.50;99.90
15143;DHT22;7672;50.834;6.286;2022-09-30T00:47:32;10.50;99.90
15143;DHT22;7672;50.834;6.286;2022-09-30T00:50:28;10.50;99.90
15143;DHT22;7672;50.834;6.286;2022-09-30T00:55:54;10.40;99.90
15143;DHT22;7672;50.834;6.286;2022-09-30T00:58:38;10.40;99.90
15143;DHT22;7672;50.834;6.286;2022-09-30T01:01:10;10.70;99.90
15143;DHT22;7672;50.834;6.286;2022-09-30T01:03:44;10.40;99.90
15143;DHT22;7672;50.834;6.286;2022-09-30T01:06:25;10.40;99.90
15143;DHT22;7672;50.834;6.286;2022-09-30T01:08:52;10.30;99.90
15143;DHT22;7672;50.834;6.286;2022-09-30T01:11:20;10.30;99.90
15143;DHT22;7672;50.834;6.286;2022-09-30T01:13:50;10.30;99.90
15143;DHT22;7672;50.834;6.286;2022-09-30T01:23:14;10.30;99.90
15143;DHT22;7672;50.834;6.286;2022-09-30T01:26:10;10.20;99.90
15143;DHT22;7672;50.834;6.286;2022-09-30T01:29:00;10.20;99.90
15143;DHT22;7672;50.834;6.286;2022-09-30T01:49:18;10.00;99.90
15143;DHT22;7672;50.834;6.286;2022-09-30T01:55:02;9.90;99.90
15143;DHT22;7672;50.834;6.286;2022-09-30T01:58:01;9.90;99.90
15143;DHT22;7672;50.834;6.286;2022-09-30T02:00:38;9.90;99.90
15143;DHT22;7672;50.834;6.286;2022-09-30T02:03:12;9.80;99.90
15143;DHT22;7672;50.834;6.286;2022-09-30T02:05:53;9.80;99.90
15143;DHT22;7672;50.834;6.286;2022-09-30T02:08:43;9.80;99.90
15143;DHT22;7672;50.834;6.286;2022-09-30T02:11:21;9.80;99.90
15143;DHT22;7672;50.834;6.286;2022-09-30T02:13:59;9.80;99.90
15143;DHT22;7672;50.834;6.286;2022-09-30T02:16:39;9.80;99.90
15143;DHT22;7672;50.834;6.286;2022-09-30T02:19:32;9.80;99.90
15143;DHT22;7672;50.834;6.286;2022-09-30T02:22:12;9.80;99.90
15143;DHT22;7672;50.834;6.286;2022-09-30T02:24:50;9.80;99.90
15143;DHT22;7672;50.834;6.286;2022-09-30T02:27:28;9.80;99.90
15143;DHT22;7672;50.834;6.286;2022-09-30T02:30:01;9.80;99.90
15143;DHT22;7672;50.834;6.286;2022-09-30T02:32:37;9.80;99.90
15143;DHT22;7672;50.834;6.286;2022-09-30T02:35:17;9.80;99.90
15143;DHT22;7672;50.834;6.286;2022-09-30T02:37:54;9.80;99.90
15143;DHT22;7672;50.834;6.286;2022-09-30T02:40:39;9.70;99.90
15143;DHT22;7672;50.834;6.286;2022-09-30T02:43:10;9.70;99.90
15143;DHT22;7672;50.834;6.286;2022-09-30T02:45:50;9.70;99.90
15143;DHT22;7672;50.834;6.286;2022-09-30T02:56:49;9.70;99.90
15143;DHT22;7672;50.834;6.286;2022-09-30T02:59:25;9.70;99.90
15143;DHT22;7672;50.834;6.286;2022-09-30T03:01:53;9.70;99.90
15143;DHT22;7672;50.834;6.286;2022-09-30T03:04:23;9.60;99.90
15143;DHT22;7672;50.834;6.286;2022-09-30T03:06:53;9.60;99.90
15143;DHT22;7672;50.834;6.286;2022-09-30T03:09:27;9.60;99.90
15143;DHT22;7672;50.834;6.286;2022-09-30T03:12:00;9.60;99.90
15143;DHT22;7672;50.834;6.286;2022-09-30T03:17:22;9.60;99.90
15143;DHT22;7672;50.834;6.286;2022-09-30T03:22:48;9.70;99.90
15143;DHT22;7672;50.834;6.286;2022-09-30T03:31:11;9.60;99.90
15143;DHT22;7672;50.834;6.286;2022-09-30T03:33:52;9.60;99.90
15143;DHT22;7672;50.834;6.286;2022-09-30T03:36:40;9.70;99.90
15143;DHT22;7672;50.834;6.286;2022-09-30T03:39:25;9.60;99.90
15143;DHT22;7672;50.834;6.286;2022-09-30T03:42:19;9.60;99.90
15143;DHT22;7672;50.834;6.286;2022-09-30T03:45:06;9.60;99.90
15143;DHT22;7672;50.834;6.286;2022-09-30T03:47:43;9.60;99.90
15143;DHT22;7672;50.834;6.286;2022-09-30T03:50:16;9.50;99.90
15143;DHT22;7672;50.834;6.286;2022-09-30T03:52:47;9.60;99.90
15143;DHT22;7672;50.834;6.286;2022-09-30T03:55:15;9.50;99.90
15143;DHT22;7672;50.834;6.286;2022-09-30T03:57:42;9.50;99.90
15143;DHT22;7672;50.834;6.286;2022-09-30T04:00:11;9.50;99.90
15143;DHT22;7672;50.834;6.286;2022-09-30T04:02:39;9.50;99.90
15143;DHT22;7672;50.834;6.286;2022-09-30T04:05:06;9.50;99.90
15143;DHT22;7672;50.834;6.286;2022-09-30T04:07:34;9.50;99.90
15143;DHT22;7672;50.834;6.286;2022-09-30T04:10:02;9.50;99.90
15143;DHT22;7672;50.834;6.286;2022-09-30T04:12:30;9.50;99.90
15143;DHT22;7672;50.834;6.286;2022-09-30T04:14:57;9.50;99.90
15143;DHT22;7672;50.834;6.286;2022-09-30T04:17:24;10.00;99.90
15143;DHT22;7672;50.834;6.286;2022-09-30T04:19:51;10.10;99.90
15143;DHT22;7672;50.834;6.286;2022-09-30T04:22:17;9.50;99.90
15143;DHT22;7672;50.834;6.286;2022-09-30T04:24:49;9.50;99.90
15143;DHT22;7672;50.834;6.286;2022-09-30T04:27:16;9.50;99.90
15143;DHT22;7672;50.834;6.286;2022-09-30T04:29:43;9.50;99.90
15143;DHT22;7672;50.834;6.286;2022-09-30T04:32:09;9.50;99.90
15143;DHT22;7672;50.834;6.286;2022-09-30T04:34:36;9.60;99.90
15143;DHT22;7672;50.834;6.286;2022-09-30T04:37:03;9.60;99.90
15143;DHT22;7672;50.834;6.286;2022-09-30T04:39:36;9.60;99.90
15143;DHT22;7672;50.834;6.286;2022-09-30T04:42:03;9.60;99.90
15143;DHT22;7672;50.834;6.286;2022-09-30T04:44:29;9.60;99.90
15143;DHT22;7672;50.834;6.286;2022-09-30T04:46:56;9.60;99.90
15143;DHT22;7672;50.834;6.286;2022-09-30T04:49:23;9.50;99.90
15143;DHT22;7672;50.834;6.286;2022-09-30T04:51:50;9.50;99.90
15143;DHT22;7672;50.834;6.286;2022-09-30T04:54:17;9.50;99.90
15143;DHT22;7672;50.834;6.286;2022-09-30T04:56:44;9.50;99.90
15143;DHT22;7672;50.834;6.286;2022-09-30T04:59:10;9.50;99.90
15143;DHT22;7672;50.834;6.286;2022-09-30T05:01:37;9.50;99.90
15143;DHT22;7672;50.834;6.286;2022-09-30T05:04:05;9.40;99.90
15143;DHT22;7672;50.834;6.286;2022-09-30T05:06:33;9.40;99.90
15143;DHT22;7672;50.834;6.286;2022-09-30T05:09:00;9.40;99.90
15143;DHT22;7672;50.834;6.286;2022-09-30T05:11:27;9.50;99.90
15143;DHT22;7672;50.834;6.286;2022-09-30T05:13:54;9.40;99.90
15143;DHT22;7672;50.834;6.286;2022-09-30T05:16:21;9.50;99.90
15143;DHT22;7672;50.834;6.286;2022-09-30T05:18:48;10.00;99.90
15143;DHT22;7672;50.834;6.286;2022-09-30T05:21:17;9.50;99.90
15143;DHT22;7672;50.834;6.286;2022-09-30T05:23:47;9.50;99.90
15143;DHT22;7672;50.834;6.286;2022-09-30T05:26:14;9.50;99.90
15143;DHT22;7672;50.834;6.286;2022-09-30T05:28:41;9.50;99.90
15143;DHT22;7672;50.834;6.286;2022-09-30T05:31:08;9.50;99.90
15143;DHT22;7672;50.834;6.286;2022-09-30T05:33:38;10.10;99.90
15143;DHT22;7672;50.834;6.286;2022-09-30T05:36:07;10.00;99.90
15143;DHT22;7672;50.834;6.286;2022-09-30T05:38:35;9.60;99.90
15143;DHT22;7672;50.834;6.286;2022-09-30T05:41:09;9.60;99.90
15143;DHT22;7672;50.834;6.286;2022-09-30T05:43:42;9.60;99.90
15143;DHT22;7672;50.834;6.286;2022-09-30T05:46:17;9.60;99.90
15143;DHT22;7672;50.834;6.286;2022-09-30T05:48:45;9.60;99.90
15143;DHT22;7672;50.834;6.286;2022-09-30T05:51:12;9.60;99.90
15143;DHT22;7672;50.834;6.286;2022-09-30T05:53:39;9.70;99.90
15143;DHT22;7672;50.834;6.286;2022-09-30T05:56:08;9.70;99.90
15143;DHT22;7672;50.834;6.286;2022-09-30T05:58:37;9.10;99.90
15143;DHT22;7672;50.834;6.286;2022-09-30T06:01:09;10.30;99.90
15143;DHT22;7672;50.834;6.286;2022-09-30T06:03:41;10.20;99.90
15143;DHT22;7672;50.834;6.286;2022-09-30T06:06:08;10.00;99.90
15143;DHT22;7672;50.834;6.286;2022-09-30T06:08:36;10.20;99.90
15143;DHT22;7672;50.834;6.286;2022-09-30T06:11:11;10.30;99.90
15143;DHT22;7672;50.834;6.286;2022-09-30T06:13:40;10.50;99.90
15143;DHT22;7672;50.834;6.286;2022-09-30T06:16:09;10.70;99.90
15143;DHT22;7672;50.834;6.286;2022-09-30T06:18:38;11.00;99.90
15143;DHT22;7672;50.834;6.286;2022-09-30T06:21:11;11.20;99.90
15143;DHT22;7672;50.834;6.286;2022-09-30T06:23:40;11.50;99.90
15143;DHT22;7672;50.834;6.286;2022-09-30T06:26:08;12.10;99.90
15143;DHT22;7672;50.834;6.286;2022-09-30T06:28:37;12.00;99.90
15143;DHT22;7672;50.834;6.286;2022-09-30T06:31:05;12.30;99.90
15143;DHT22;7672;50.834;6.286;2022-09-30T06:33:32;12.70;99.90
15143;DHT22;7672;50.834;6.286;2022-09-30T06:36:00;13.00;99.90
15143;DHT22;7672;50.834;6.286;2022-09-30T06:38:38;13.30;99.90
15143;DHT22;7672;50.834;6.286;2022-09-30T06:41:06;13.60;99.90
15143;DHT22;7672;50.834;6.286;2022-09-30T06:43:34;14.00;99.90
15143;DHT22;7672;50.834;6.286;2022-09-30T06:46:14;14.30;99.90
15143;DHT22;7672;50.834;6.286;2022-09-30T06:48:55;14.60;99.90
15143;DHT22;7672;50.834;6.286;2022-09-30T06:51:36;15.00;99.90
15143;DHT22;7672;50.834;6.286;2022-09-30T06:54:03;15.40;99.90
15143;DHT22;7672;50.834;6.286;2022-09-30T06:56:29;16.00;99.90
15143;DHT22;7672;50.834;6.286;2022-09-30T06:58:57;16.00;99.90
15143;DHT22;7672;50.834;6.286;2022-09-30T07:01:24;16.40;99.90
15143;DHT22;7672;50.834;6.286;2022-09-30T07:03:53;16.70;99.90
15143;DHT22;7672;50.834;6.286;2022-09-30T07:06:24;16.90;99.90
15143;DHT22;7672;50.834;6.286;2022-09-30T07:08:52;17.40;99.90
15143;DHT22;7672;50.834;6.286;2022-09-30T07:11:20;17.70;99.90
15143;DHT22;7672;50.834;6.286;2022-09-30T07:13:47;18.10;99.90
15143;DHT22;7672;50.834;6.286;2022-09-30T07:16:16;18.40;99.90
15143;DHT22;7672;50.834;6.286;2022-09-30T07:18:45;18.70;99.90
15143;DHT22;7672;50.834;6.286;2022-09-30T07:21:14;19.00;99.90
15143;DHT22;7672;50.834;6.286;2022-09-30T07:23:43;19.40;99.90
15143;DHT22;7672;50.834;6.286;2022-09-30T07:26:19;19.70;99.90
15143;DHT22;7672;50.834;6.286;2022-09-30T07:28:48;20.00;99.90
15143;DHT22;7672;50.834;6.286;2022-09-30T07:31:22;20.40;99.90
15143;DHT22;7672;50.834;6.286;2022-09-30T07:34:01;20.70;99.90
15143;DHT22;7672;50.834;6.286;2022-09-30T07:36:29;21.10;99.90
15143;DHT22;7672;50.834;6.286;2022-09-30T07:39:00;21.40;99.90
15143;DHT22;7672;50.834;6.286;2022-09-30T07:41:34;21.80;99.90
15143;DHT22;7672;50.834;6.286;2022-09-30T07:44:04;22.10;99.90
15143;DHT22;7672;50.834;6.286;2022-09-30T07:46:35;22.40;99.90
15143;DHT22;7672;50.834;6.286;2022-09-30T07:49:06;22.80;99.90
15143;DHT22;7672;50.834;6.286;2022-09-30T07:51:40;23.00;99.90
15143;DHT22;7672;50.834;6.286;2022-09-30T07:54:19;23.40;99.90
15143;DHT22;7672;50.834;6.286;2022-09-30T07:56:51;23.60;99.90
15143;DHT22;7672;50.834;6.286;2022-09-30T07:59:40;23.90;99.90
15143;DHT22;7672;50.834;6.286;2022-09-30T08:02:11;24.30;99.90
15143;DHT22;7672;50.834;6.286;2022-09-30T08:04:41;24.60;99.90
15143;DHT22;7672;50.834;6.286;2022-09-30T08:07:12;24.90;99.90
15143;DHT22;7672;50.834;6.286;2022-09-30T08:09:40;25.20;99.90
15143;DHT22;7672;50.834;6.286;2022-09-30T08:12:11;25.50;99.90
15143;DHT22;7672;50.834;6.286;2022-09-30T08:14:38;25.80;99.90
15143;DHT22;7672;50.834;6.286;2022-09-30T08:17:05;26.00;99.90
15143;DHT22;7672;50.834;6.286;2022-09-30T08:19:32;26.30;99.90
15143;DHT22;7672;50.834;6.286;2022-09-30T08:21:59;26.60;99.90
15143;DHT22;7672;50.834;6.286;2022-09-30T08:24:31;26.90;99.90
15143;DHT22;7672;50.834;6.286;2022-09-30T08:26:58;27.20;99.90
15143;DHT22;7672;50.834;6.286;2022-09-30T08:29:25;27.40;99.90
15143;DHT22;7672;50.834;6.286;2022-09-30T08:32:12;27.70;99.90
15143;DHT22;7672;50.834;6.286;2022-09-30T08:34:39;28.00;99.90
15143;DHT22;7672;50.834;6.286;2022-09-30T08:37:06;28.20;99.20
15143;DHT22;7672;50.834;6.286;2022-09-30T08:39:36;28.50;98.70
15143;DHT22;7672;50.834;6.286;2022-09-30T08:42:36;28.70;98.10
15143;DHT22;7672;50.834;6.286;2022-09-30T08:45:40;28.90;97.70
15143;DHT22;7672;50.834;6.286;2022-09-30T08:48:33;29.20;97.40
15143;DHT22;7672;50.834;6.286;2022-09-30T08:51:35;29.40;96.00
15143;DHT22;7672;50.834;6.286;2022-09-30T08:54:12;29.60;96.60
15143;DHT22;7672;50.834;6.286;2022-09-30T08:56:43;29.70;95.20
15143;DHT22;7672;50.834;6.286;2022-09-30T09:02:01;30.20;94.20
15143;DHT22;7672;50.834;6.286;2022-09-30T09:04:43;30.50;94.00
15143;DHT22;7672;50.834;6.286;2022-09-30T09:07:38;30.60;93.90
15143;DHT22;7672;50.834;6.286;2022-09-30T09:13:45;30.90;91.90
15143;DHT22;7672;50.834;6.286;2022-09-30T09:19:08;31.30;90.80
15143;DHT22;7672;50.834;6.286;2022-09-30T09:26:56;31.40;89.30
15143;DHT22;7672;50.834;6.286;2022-09-30T09:29:40;31.50;88.40
15143;DHT22;7672;50.834;6.286;2022-09-30T09:32:17;31.60;88.30
15143;DHT22;7672;50.834;6.286;2022-09-30T09:34:49;31.70;86.70
15143;DHT22;7672;50.834;6.286;2022-09-30T09:38:00;31.80;87.90
15143;DHT22;7672;50.834;6.286;2022-09-30T09:41:33;31.90;87.10
15143;DHT22;7672;50.834;6.286;2022-09-30T09:47:13;32.10;85.40
15143;DHT22;7672;50.834;6.286;2022-09-30T09:49:49;32.20;85.00
15143;DHT22;7672;50.834;6.286;2022-09-30T09:52:27;32.30;83.70
15143;DHT22;7672;50.834;6.286;2022-09-30T09:55:20;32.30;84.00
15143;DHT22;7672;50.834;6.286;2022-09-30T09:58:04;32.40;82.00
15143;DHT22;7672;50.834;6.286;2022-09-30T10:00:32;32.40;82.60
15143;DHT22;7672;50.834;6.286;2022-09-30T10:06:06;32.40;80.70
15143;DHT22;7672;50.834;6.286;2022-09-30T10:08:38;32.40;80.70
15143;DHT22;7672;50.834;6.286;2022-09-30T10:11:25;32.40;82.30
15143;DHT22;7672;50.834;6.286;2022-09-30T10:13:57;32.40;80.20
15143;DHT22;7672;50.834;6.286;2022-09-30T10:16:32;32.40;80.00
15143;DHT22;7672;50.834;6.286;2022-09-30T10:19:23;32.30;78.90
15143;DHT22;7672;50.834;6.286;2022-09-30T10:24:40;32.40;80.00
15143;DHT22;7672;50.834;6.286;2022-09-30T10:29:56;32.50;78.60
15143;DHT22;7672;50.834;6.286;2022-09-30T10:32:26;32.60;78.40
15143;DHT22;7672;50.834;6.286;2022-09-30T10:35:02;32.60;76.60
15143;DHT22;7672;50.834;6.286;2022-09-30T10:37:32;32.50;75.70
15143;DHT22;7672;50.834;6.286;2022-09-30T10:40:05;32.40;75.90
15143;DHT22;7672;50.834;6.286;2022-09-30T10:42:38;32.10;74.20
15143;DHT22;7672;50.834;6.286;2022-09-30T10:45:19;31.90;74.60
15143;DHT22;7672;50.834;6.286;2022-09-30T10:47:51;31.60;75.30
15143;DHT22;7672;50.834;6.286;2022-09-30T10:50:21;31.30;74.90
15143;DHT22;7672;50.834;6.286;2022-09-30T10:52:58;31.00;75.70
15143;DHT22;7672;50.834;6.286;2022-09-30T10:55:41;30.70;77.60
15143;DHT22;7672;50.834;6.286;2022-09-30T10:58:22;30.50;77.50
15143;DHT22;7672;50.834;6.286;2022-09-30T11:07:28;30.20;76.70
15143;DHT22;7672;50.834;6.286;2022-09-30T11:13:33;30.20;77.50
15143;DHT22;7672;50.834;6.286;2022-09-30T11:16:36;30.20;76.30
15143;DHT22;7672;50.834;6.286;2022-09-30T11:19:25;30.30;76.80
15143;DHT22;7672;50.834;6.286;2022-09-30T11:24:53;30.40;77.50
15143;DHT22;7672;50.834;6.286;2022-09-30T11:36:29;30.00;73.90
15143;DHT22;7672;50.834;6.286;2022-09-30T11:39:30;29.70;75.40
15143;DHT22;7672;50.834;6.286;2022-09-30T11:42:06;29.40;75.00
15143;DHT22;7672;50.834;6.286;2022-09-30T11:44:43;29.20;75.50
15143;DHT22;7672;50.834;6.286;2022-09-30T11:47:33;28.90;76.10
15143;DHT22;7672;50.834;6.286;2022-09-30T11:59:25;28.00;76.80
15143;DHT22;7672;50.834;6.286;2022-09-30T12:02:00;27.90;78.80
15143;DHT22;7672;50.834;6.286;2022-09-30T12:04:41;27.70;79.60
15143;DHT22;7672;50.834;6.286;2022-09-30T12:07:16;27.50;80.20
15143;DHT22;7672;50.834;6.286;2022-09-30T12:09:52;27.30;79.10
15143;DHT22;7672;50.834;6.286;2022-09-30T12:12:23;27.20;79.10
15143;DHT22;7672;50.834;6.286;2022-09-30T12:14:57;27.00;80.20
15143;DHT22;7672;50.834;6.286;2022-09-30T12:18:14;26.90;80.60
15143;DHT22;7672;50.834;6.286;2022-09-30T12:20:51;26.70;81.20
15143;DHT22;7672;50.834;6.286;2022-09-30T12:26:24;26.30;81.30
15143;DHT22;7672;50.834;6.286;2022-09-30T12:28:59;26.20;80.50
15143;DHT22;7672;50.834;6.286;2022-09-30T12:35:29;25.90;81.60
15143;DHT22;7672;50.834;6.286;2022-09-30T12:44:12;25.50;83.50
15143;DHT22;7672;50.834;6.286;2022-09-30T12:50:03;25.20;81.50
15143;DHT22;7672;50.834;6.286;2022-09-30T12:52:34;25.10;82.40
15143;DHT22;7672;50.834;6.286;2022-09-30T12:55:19;25.00;82.60
15143;DHT22;7672;50.834;6.286;2022-09-30T12:57:48;24.90;81.10
15143;DHT22;7672;50.834;6.286;2022-09-30T13:00:21;24.80;81.90
15143;DHT22;7672;50.834;6.286;2022-09-30T13:03:08;24.70;82.50
15143;DHT22;7672;50.834;6.286;2022-09-30T13:08:22;24.40;82.80
15143;DHT22;7672;50.834;6.286;2022-09-30T13:10:59;24.30;82.70
15143;DHT22;7672;50.834;6.286;2022-09-30T13:13:31;24.20;84.60
15143;DHT22;7672;50.834;6.286;2022-09-30T13:16:01;24.10;84.60
15143;DHT22;7672;50.834;6.286;2022-09-30T13:31:29;23.70;86.50
15143;DHT22;7672;50.834;6.286;2022-09-30T13:36:40;23.60;86.00
15143;DHT22;7672;50.834;6.286;2022-09-30T13:39:30;23.60;86.00
15143;DHT22;7672;50.834;6.286;2022-09-30T13:42:28;23.50;86.10
15143;DHT22;7672;50.834;6.286;2022-09-30T13:45:09;23.40;86.40
15143;DHT22;7672;50.834;6.286;2022-09-30T13:48:01;23.30;86.70
15143;DHT22;7672;50.834;6.286;2022-09-30T13:50:42;23.20;87.30
15143;DHT22;7672;50.834;6.286;2022-09-30T13:53:38;23.10;88.20
15143;DHT22;7672;50.834;6.286;2022-09-30T13:56:08;23.00;88.50
15143;DHT22;7672;50.834;6.286;2022-09-30T13:59:13;23.00;87.80
15143;DHT22;7672;50.834;6.286;2022-09-30T14:08:32;22.80;88.20
15143;DHT22;7672;50.834;6.286;2022-09-30T14:18:01;22.50;89.00
15143;DHT22;7672;50.834;6.286;2022-09-30T14:23:27;22.30;89.50
15143;DHT22;7672;50.834;6.286;2022-09-30T14:29:14;22.10;90.10
15143;DHT22;7672;50.834;6.286;2022-09-30T14:31:44;22.00;90.30
15143;DHT22;7672;50.834;6.286;2022-09-30T14:34:13;22.00;90.00
15143;DHT22;7672;50.834;6.286;2022-09-30T14:36:43;21.90;90.20
15143;DHT22;7672;50.834;6.286;2022-09-30T14:39:21;21.90;90.40
15143;DHT22;7672;50.834;6.286;2022-09-30T14:41:55;21.70;90.50
15143;DHT22;7672;50.834;6.286;2022-09-30T14:44:26;21.70;90.40
15143;DHT22;7672;50.834;6.286;2022-09-30T14:46:58;21.60;90.70
15143;DHT22;7672;50.834;6.286;2022-09-30T14:49:29;21.60;90.70
15143;DHT22;7672;50.834;6.286;2022-09-30T14:52:02;21.50;90.50
15143;DHT22;7672;50.834;6.286;2022-09-30T14:54:31;21.50;90.40
15143;DHT22;7672;50.834;6.286;2022-09-30T14:57:01;21.40;90.70
15143;DHT22;7672;50.834;6.286;2022-09-30T14:59:32;21.30;91.30
15143;DHT22;7672;50.834;6.286;2022-09-30T15:02:07;21.30;91.30
15143;DHT22;7672;50.834;6.286;2022-09-30T15:04:47;21.20;91.30
15143;DHT22;7672;50.834;6.286;2022-09-30T15:07:24;21.10;91.30
15143;DHT22;7672;50.834;6.286;2022-09-30T15:09:51;21.10;91.60
15143;DHT22;7672;50.834;6.286;2022-09-30T15:12:20;20.90;91.50
15143;DHT22;7672;50.834;6.286;2022-09-30T15:14:54;21.00;91.60
15143;DHT22;7672;50.834;6.286;2022-09-30T15:17:28;20.90;91.70
15143;DHT22;7672;50.834;6.286;2022-09-30T15:20:01;20.90;91.30
15143;DHT22;7672;50.834;6.286;2022-09-30T15:22:51;20.90;91.50
15143;DHT22;7672;50.834;6.286;2022-09-30T15:25:20;20.90;91.30
15143;DHT22;7672;50.834;6.286;2022-09-30T15:27:47;20.80;91.60
15143;DHT22;7672;50.834;6.286;2022-09-30T15:32:44;20.70;91.90
15143;DHT22;7672;50.834;6.286;2022-09-30T15:35:20;20.70;92.30
15143;DHT22;7672;50.834;6.286;2022-09-30T15:37:48;20.60;91.70
15143;DHT22;7672;50.834;6.286;2022-09-30T15:40:21;20.60;92.90
15143;DHT22;7672;50.834;6.286;2022-09-30T15:43:09;20.60;92.60
15143;DHT22;7672;50.834;6.286;2022-09-30T15:45:43;20.50;92.30
15143;DHT22;7672;50.834;6.286;2022-09-30T15:50:48;20.40;92.50
15143;DHT22;7672;50.834;6.286;2022-09-30T15:55:56;20.30;92.40
15143;DHT22;7672;50.834;6.286;2022-09-30T16:01:23;20.20;92.90
15143;DHT22;7672;50.834;6.286;2022-09-30T16:14:42;19.90;93.20
15143;DHT22;7672;50.834;6.286;2022-09-30T16:17:37;19.80;93.40
15143;DHT22;7672;50.834;6.286;2022-09-30T16:25:45;19.70;93.90
15143;DHT22;7672;50.834;6.286;2022-09-30T16:28:13;19.70;94.30
15143;DHT22;7672;50.834;6.286;2022-09-30T16:30:49;19.70;94.40
15143;DHT22;7672;50.834;6.286;2022-09-30T16:33:17;19.60;94.80
15143;DHT22;7672;50.834;6.286;2022-09-30T16:35:45;19.60;94.60
15143;DHT22;7672;50.834;6.286;2022-09-30T16:38:16;19.60;94.50
15143;DHT22;7672;50.834;6.286;2022-09-30T16:40:43;19.50;94.40
15143;DHT22;7672;50.834;6.286;2022-09-30T16:43:10;19.50;94.60
15143;DHT22;7672;50.834;6.286;2022-09-30T16:45:38;19.50;94.90
15143;DHT22;7672;50.834;6.286;2022-09-30T16:48:17;19.40;94.70
15143;DHT22;7672;50.834;6.286;2022-09-30T16:50:50;19.30;95.10
15143;DHT22;7672;50.834;6.286;2022-09-30T16:53:21;19.30;95.10
15143;DHT22;7672;50.834;6.286;2022-09-30T16:55:48;19.30;95.40
15143;DHT22;7672;50.834;6.286;2022-09-30T16:58:15;19.20;95.80
15143;DHT22;7672;50.834;6.286;2022-09-30T17:00:43;19.10;95.90
15143;DHT22;7672;50.834;6.286;2022-09-30T17:03:12;19.00;96.40
15143;DHT22;7672;50.834;6.286;2022-09-30T17:05:45;18.90;96.80
15143;DHT22;7672;50.834;6.286;2022-09-30T17:08:19;18.80;96.80
15143;DHT22;7672;50.834;6.286;2022-09-30T17:10:48;18.70;97.10
15143;DHT22;7672;50.834;6.286;2022-09-30T17:13:18;18.70;97.20
15143;DHT22;7672;50.834;6.286;2022-09-30T17:15:50;18.60;97.70
15143;DHT22;7672;50.834;6.286;2022-09-30T17:18:18;18.50;98.00
15143;DHT22;7672;50.834;6.286;2022-09-30T17:20:46;18.40;98.20
15143;DHT22;7672;50.834;6.286;2022-09-30T17:23:22;18.20;98.30
15143;DHT22;7672;50.834;6.286;2022-09-30T17:25:50;18.20;98.70
15143;DHT22;7672;50.834;6.286;2022-09-30T17:28:17;18.10;99.00
15143;DHT22;7672;50.834;6.286;2022-09-30T17:30:46;18.00;99.10
15143;DHT22;7672;50.834;6.286;2022-09-30T17:33:16;17.90;99.10
15143;DHT22;7672;50.834;6.286;2022-09-30T17:35:56;17.80;99.50
15143;DHT22;7672;50.834;6.286;2022-09-30T17:38:28;17.70;99.80
15143;DHT22;7672;50.834;6.286;2022-09-30T17:40:55;17.60;99.90
15143;DHT22;7672;50.834;6.286;2022-09-30T17:43:41;17.40;99.90
15143;DHT22;7672;50.834;6.286;2022-09-30T17:46:08;17.50;99.90
15143;DHT22;7672;50.834;6.286;2022-09-30T17:48:34;17.40;99.90
15143;DHT22;7672;50.834;6.286;2022-09-30T17:51:03;17.30;99.90
15143;DHT22;7672;50.834;6.286;2022-09-30T17:53:31;17.20;99.90
15143;DHT22;7672;50.834;6.286;2022-09-30T17:56:06;17.10;99.90
15143;DHT22;7672;50.834;6.286;2022-09-30T17:58:41;17.10;99.90
15143;DHT22;7672;50.834;6.286;2022-09-30T18:01:10;17.00;99.90
15143;DHT22;7672;50.834;6.286;2022-09-30T18:03:37;16.90;99.90
15143;DHT22;7672;50.834;6.286;2022-09-30T18:06:05;16.80;99.90
15143;DHT22;7672;50.834;6.286;2022-09-30T18:08:32;16.80;99.90
15143;DHT22;7672;50.834;6.286;2022-09-30T18:11:00;16.70;99.90
15143;DHT22;7672;50.834;6.286;2022-09-30T18:13:28;16.70;99.90
15143;DHT22;7672;50.834;6.286;2022-09-30T18:15:55;16.60;99.90
15143;DHT22;7672;50.834;6.286;2022-09-30T18:18:28;16.50;99.90
15143;DHT22;7672;50.834;6.286;2022-09-30T18:20:55;16.50;99.90
15143;DHT22;7672;50.834;6.286;2022-09-30T18:23:21;16.30;99.90
15143;DHT22;7672;50.834;6.286;2022-09-30T18:25:48;16.30;99.90
15143;DHT22;7672;50.834;6.286;2022-09-30T18:28:17;16.20;99.90
15143;DHT22;7672;50.834;6.286;2022-09-30T18:30:44;16.20;99.90
15143;DHT22;7672;50.834;6.286;2022-09-30T18:33:12;16.60;99.90
15143;DHT22;7672;50.834;6.286;2022-09-30T18:35:42;16.00;99.90
15143;DHT22;7672;50.834;6.286;2022-09-30T18:38:10;16.50;99.90
15143;DHT22;7672;50.834;6.286;2022-09-30T18:40:43;16.30;99.90
15143;DHT22;7672;50.834;6.286;2022-09-30T18:43:12;15.80;99.90
15143;DHT22;7672;50.834;6.286;2022-09-30T18:45:40;15.80;99.90
15143;DHT22;7672;50.834;6.286;2022-09-30T18:48:09;15.70;99.90
15143;DHT22;7672;50.834;6.286;2022-09-30T18:50:36;15.70;99.90
15143;DHT22;7672;50.834;6.286;2022-09-30T18:53:04;15.90;99.90
15143;DHT22;7672;50.834;6.286;2022-09-30T18:55:38;15.70;99.90
15143;DHT22;7672;50.834;6.286;2022-09-30T18:58:05;15.50;99.90
15143;DHT22;7672;50.834;6.286;2022-09-30T19:00:32;15.50;99.90
15143;DHT22;7672;50.834;6.286;2022-09-30T19:02:59;15.50;99.90
15143;DHT22;7672;50.834;6.286;2022-09-30T19:05:27;15.40;99.90
15143;DHT22;7672;50.834;6.286;2022-09-30T19:07:54;15.40;99.90
15143;DHT22;7672;50.834;6.286;2022-09-30T19:10:22;15.30;99.90
15143;DHT22;7672;50.834;6.286;2022-09-30T19:12:50;15.30;99.90
15143;DHT22;7672;50.834;6.286;2022-09-30T19:15:17;15.30;99.90
15143;DHT22;7672;50.834;6.286;2022-09-30T19:17:45;15.20;99.90
15143;DHT22;7672;50.834;6.286;2022-09-30T19:20:12;15.10;99.90
15143;DHT22;7672;50.834;6.286;2022-09-30T19:22:41;15.10;99.90
15143;DHT22;7672;50.834;6.286;2022-09-30T19:25:09;15.10;99.90
15143;DHT22;7672;50.834;6.286;2022-09-30T19:27:38;15.10;99.90
15143;DHT22;7672;50.834;6.286;2022-09-30T19:30:10;15.00;99.90
15143;DHT22;7672;50.834;6.286;2022-09-30T19:32:39;15.00;99.90
15143;DHT22;7672;50.834;6.286;2022-09-30T19:35:08;15.00;99.90
15143;DHT22;7672;50.834;6.286;2022-09-30T19:37:38;14.90;99.90
15143;DHT22;7672;50.834;6.286;2022-09-30T19:40:25;14.90;99.90